sensor_id;sensor_type;location;lat;lon;timestamp;pressure;altitude;pressure_sealevel;temperature;humidity
71996;BME280;59862;47.732;7.346;2023-07-20T00:01:59;98022.59;;;20.26;59.56
71996;BME280;59862;47.732;7.346;2023-07-20T00:04:27;98021.29;;;20.17;59.93
71996;BME280;59862;47.732;7.346;2023-07-20T00:06:54;98017.88;;;20.10;60.62
71996;BME280;59862;47.732;7.346;2023-07-20T00:09:22;98021.33;;;20.06;61.38
71996;BME280;59862;47.732;7.346;2023-07-20T00:11:50;98017.11;;;19.98;61.58
71996;BME280;59862;47.732;7.346;2023-07-20T00:14:20;98018.75;;;19.99;60.97
71996;BME280;59862;47.732;7.346;2023-07-20T00:16:54;98018.22;;;20.00;61.03
71996;BME280;59862;47.732;7.346;2023-07-20T00:19:19;98022.78;;;19.97;60.55
71996;BME280;59862;47.732;7.346;2023-07-20T00:21:46;98024.70;;;19.96;61.32
71996;BME280;59862;47.732;7.346;2023-07-20T00:24:14;98024.34;;;19.93;61.20
71996;BME280;59862;47.732;7.346;2023-07-20T00:26:42;98017.84;;;19.94;61.16
71996;BME280;59862;47.732;7.346;2023-07-20T00:29:10;98021.41;;;19.97;61.46
71996;BME280;59862;47.732;7.346;2023-07-20T00:31:37;98016.16;;;19.93;61.42
71996;BME280;59862;47.732;7.346;2023-07-20T00:34:05;98020.00;;;19.80;61.59
71996;BME280;59862;47.732;7.346;2023-07-20T00:36:33;98018.89;;;19.79;62.19
71996;BME280;59862;47.732;7.346;2023-07-20T00:39:00;98023.75;;;19.77;62.03
71996;BME280;59862;47.732;7.346;2023-07-20T00:41:28;98016.42;;;19.77;62.10
71996;BME280;59862;47.732;7.346;2023-07-20T00:43:56;98020.02;;;19.68;62.56
71996;BME280;59862;47.732;7.346;2023-07-20T00:46:24;98025.78;;;19.70;62.52
71996;BME280;59862;47.732;7.346;2023-07-20T00:48:53;98018.91;;;19.67;62.66
71996;BME280;59862;47.732;7.346;2023-07-20T00:51:22;98017.08;;;19.70;62.97
71996;BME280;59862;47.732;7.346;2023-07-20T00:53:50;98010.22;;;19.68;62.58
71996;BME280;59862;47.732;7.346;2023-07-20T00:56:18;98008.98;;;19.61;63.05
71996;BME280;59862;47.732;7.346;2023-07-20T00:58:46;98010.10;;;19.62;63.03
71996;BME280;59862;47.732;7.346;2023-07-20T01:01:13;98012.83;;;19.62;62.87
71996;BME280;59862;47.732;7.346;2023-07-20T01:03:41;98013.99;;;19.66;63.00
71996;BME280;59862;47.732;7.346;2023-07-20T01:09:24;98005.16;;;19.59;63.37
71996;BME280;59862;47.732;7.346;2023-07-20T01:12:00;98005.56;;;19.54;63.26
71996;BME280;59862;47.732;7.346;2023-07-20T01:14:27;98009.69;;;19.42;63.54
71996;BME280;59862;47.732;7.346;2023-07-20T01:16:55;98009.67;;;19.31;64.12
71996;BME280;59862;47.732;7.346;2023-07-20T01:19:22;98005.28;;;19.30;64.50
71996;BME280;59862;47.732;7.346;2023-07-20T01:22:15;98016.66;;;19.27;64.70
71996;BME280;59862;47.732;7.346;2023-07-20T01:25:04;98017.83;;;19.31;64.08
71996;BME280;59862;47.732;7.346;2023-07-20T01:32:51;98015.81;;;19.49;64.99
71996;BME280;59862;47.732;7.346;2023-07-20T01:35:21;98013.67;;;19.51;64.74
71996;BME280;59862;47.732;7.346;2023-07-20T01:37:51;98007.56;;;19.44;64.21
71996;BME280;59862;47.732;7.346;2023-07-20T01:40:20;98009.69;;;19.42;64.29
71996;BME280;59862;47.732;7.346;2023-07-20T01:42:49;98002.83;;;19.40;64.78
71996;BME280;59862;47.732;7.346;2023-07-20T01:45:18;97996.83;;;19.29;65.00
71996;BME280;59862;47.732;7.346;2023-07-20T01:47:45;98004.72;;;19.39;64.32
71996;BME280;59862;47.732;7.346;2023-07-20T01:50:13;97998.07;;;19.24;65.03
71996;BME280;59862;47.732;7.346;2023-07-20T01:52:40;97999.55;;;19.29;64.25
71996;BME280;59862;47.732;7.346;2023-07-20T01:55:09;97998.44;;;19.27;65.27
71996;BME280;59862;47.732;7.346;2023-07-20T01:57:36;97994.05;;;19.15;66.54
71996;BME280;59862;47.732;7.346;2023-07-20T02:00:05;97995.84;;;19.09;66.78
71996;BME280;59862;47.732;7.346;2023-07-20T02:02:33;97989.59;;;18.97;67.08
71996;BME280;59862;47.732;7.346;2023-07-20T02:05:00;97995.19;;;18.93;67.30
71996;BME280;59862;47.732;7.346;2023-07-20T02:07:28;97990.05;;;18.94;67.68
71996;BME280;59862;47.732;7.346;2023-07-20T02:09:55;97994.01;;;18.89;68.06
71996;BME280;59862;47.732;7.346;2023-07-20T02:12:22;97996.20;;;18.89;68.00
71996;BME280;59862;47.732;7.346;2023-07-20T02:14:50;97990.52;;;18.91;67.66
71996;BME280;59862;47.732;7.346;2023-07-20T02:17:18;97987.80;;;18.91;68.07
71996;BME280;59862;47.732;7.346;2023-07-20T02:19:45;97986.26;;;18.72;69.41
71996;BME280;59862;47.732;7.346;2023-07-20T02:22:14;97990.05;;;18.71;69.00
71996;BME280;59862;47.732;7.346;2023-07-20T02:24:43;97992.66;;;18.77;68.49
71996;BME280;59862;47.732;7.346;2023-07-20T02:27:10;97994.37;;;18.81;68.70
71996;BME280;59862;47.732;7.346;2023-07-20T02:29:38;97992.28;;;18.74;69.18
71996;BME280;59862;47.732;7.346;2023-07-20T02:32:07;97996.02;;;18.70;69.35
71996;BME280;59862;47.732;7.346;2023-07-20T02:34:36;97992.98;;;18.69;68.62
71996;BME280;59862;47.732;7.346;2023-07-20T02:37:04;97991.35;;;18.68;68.52
71996;BME280;59862;47.732;7.346;2023-07-20T02:39:31;97989.86;;;18.63;68.79
71996;BME280;59862;47.732;7.346;2023-07-20T02:41:59;97994.04;;;18.57;68.64
71996;BME280;59862;47.732;7.346;2023-07-20T02:44:26;97999.83;;;18.49;68.56
71996;BME280;59862;47.732;7.346;2023-07-20T02:46:53;97996.80;;;18.48;67.92
71996;BME280;59862;47.732;7.346;2023-07-20T02:49:21;97994.56;;;18.45;66.89
71996;BME280;59862;47.732;7.346;2023-07-20T02:51:48;97997.39;;;18.50;67.57
71996;BME280;59862;47.732;7.346;2023-07-20T02:54:16;97991.08;;;18.47;67.54
71996;BME280;59862;47.732;7.346;2023-07-20T02:56:43;97997.04;;;18.37;68.35
71996;BME280;59862;47.732;7.346;2023-07-20T02:59:11;97996.09;;;18.32;68.42
71996;BME280;59862;47.732;7.346;2023-07-20T03:01:38;97991.60;;;18.26;68.28
71996;BME280;59862;47.732;7.346;2023-07-20T03:04:08;97992.74;;;18.18;68.23
71996;BME280;59862;47.732;7.346;2023-07-20T03:06:37;97994.80;;;18.13;68.69
71996;BME280;59862;47.732;7.346;2023-07-20T03:09:05;97992.84;;;18.11;68.35
71996;BME280;59862;47.732;7.346;2023-07-20T03:11:33;97995.20;;;18.08;68.29
71996;BME280;59862;47.732;7.346;2023-07-20T03:14:00;97991.34;;;18.06;68.53
71996;BME280;59862;47.732;7.346;2023-07-20T03:16:28;97995.20;;;18.08;68.95
71996;BME280;59862;47.732;7.346;2023-07-20T03:18:57;97990.22;;;18.05;69.14
71996;BME280;59862;47.732;7.346;2023-07-20T03:21:24;97994.37;;;18.07;68.92
71996;BME280;59862;47.732;7.346;2023-07-20T03:23:52;97996.17;;;18.04;68.47
71996;BME280;59862;47.732;7.346;2023-07-20T03:26:20;97992.27;;;18.00;69.20
71996;BME280;59862;47.732;7.346;2023-07-20T03:28:48;97999.03;;;18.09;68.75
71996;BME280;59862;47.732;7.346;2023-07-20T03:31:16;97993.25;;;18.06;68.93
71996;BME280;59862;47.732;7.346;2023-07-20T03:33:43;98005.98;;;18.05;68.45
71996;BME280;59862;47.732;7.346;2023-07-20T03:36:11;98000.89;;;17.97;68.89
71996;BME280;59862;47.732;7.346;2023-07-20T03:38:38;98006.09;;;17.90;68.74
71996;BME280;59862;47.732;7.346;2023-07-20T03:41:06;98000.42;;;17.91;68.79
71996;BME280;59862;47.732;7.346;2023-07-20T03:43:33;98004.05;;;17.94;68.99
71996;BME280;59862;47.732;7.346;2023-07-20T03:46:01;98010.67;;;17.98;69.04
71996;BME280;59862;47.732;7.346;2023-07-20T03:48:30;98002.55;;;17.89;69.19
71996;BME280;59862;47.732;7.346;2023-07-20T03:50:57;98005.51;;;17.79;69.58
71996;BME280;59862;47.732;7.346;2023-07-20T03:53:26;98011.41;;;17.76;69.76
71996;BME280;59862;47.732;7.346;2023-07-20T03:55:54;98013.41;;;17.80;69.75
71996;BME280;59862;47.732;7.346;2023-07-20T03:58:22;98019.32;;;17.77;70.05
71996;BME280;59862;47.732;7.346;2023-07-20T04:00:51;98012.45;;;17.75;70.13
71996;BME280;59862;47.732;7.346;2023-07-20T04:03:20;98014.50;;;17.70;70.24
71996;BME280;59862;47.732;7.346;2023-07-20T04:05:49;98014.86;;;17.74;70.53
71996;BME280;59862;47.732;7.346;2023-07-20T04:08:17;98019.16;;;17.72;70.71
71996;BME280;59862;47.732;7.346;2023-07-20T04:10:45;98012.39;;;17.63;71.19
71996;BME280;59862;47.732;7.346;2023-07-20T04:13:12;98011.78;;;17.61;71.15
71996;BME280;59862;47.732;7.346;2023-07-20T04:15:40;98014.22;;;17.51;71.72
71996;BME280;59862;47.732;7.346;2023-07-20T04:18:08;98022.04;;;17.50;71.82
71996;BME280;59862;47.732;7.346;2023-07-20T04:20:35;98025.88;;;17.42;72.37
71996;BME280;59862;47.732;7.346;2023-07-20T04:23:03;98019.77;;;17.47;72.52
71996;BME280;59862;47.732;7.346;2023-07-20T04:25:30;98023.31;;;17.48;72.15
71996;BME280;59862;47.732;7.346;2023-07-20T04:27:59;98019.41;;;17.53;72.17
71996;BME280;59862;47.732;7.346;2023-07-20T04:30:27;98024.59;;;17.63;71.78
71996;BME280;59862;47.732;7.346;2023-07-20T04:32:54;98019.33;;;17.59;71.88
71996;BME280;59862;47.732;7.346;2023-07-20T04:38:08;98017.53;;;17.53;72.07
71996;BME280;59862;47.732;7.346;2023-07-20T04:40:36;98017.01;;;17.54;71.76
71996;BME280;59862;47.732;7.346;2023-07-20T04:43:03;98022.88;;;17.51;71.97
71996;BME280;59862;47.732;7.346;2023-07-20T04:45:31;98020.84;;;17.55;72.38
71996;BME280;59862;47.732;7.346;2023-07-20T04:47:59;98018.57;;;17.52;72.12
71996;BME280;59862;47.732;7.346;2023-07-20T04:50:26;98025.48;;;17.48;72.35
71996;BME280;59862;47.732;7.346;2023-07-20T04:52:54;98023.00;;;17.47;72.48
71996;BME280;59862;47.732;7.346;2023-07-20T04:55:21;98011.78;;;17.52;72.31
71996;BME280;59862;47.732;7.346;2023-07-20T04:57:48;98009.36;;;17.44;72.66
71996;BME280;59862;47.732;7.346;2023-07-20T05:00:17;98013.70;;;17.52;72.43
71996;BME280;59862;47.732;7.346;2023-07-20T05:02:45;98011.91;;;17.48;72.75
71996;BME280;59862;47.732;7.346;2023-07-20T05:05:15;98015.86;;;17.52;72.34
71996;BME280;59862;47.732;7.346;2023-07-20T05:07:42;98020.84;;;17.64;72.19
71996;BME280;59862;47.732;7.346;2023-07-20T05:10:10;98018.04;;;17.80;71.77
71996;BME280;59862;47.732;7.346;2023-07-20T05:12:38;98025.94;;;17.90;71.65
71996;BME280;59862;47.732;7.346;2023-07-20T05:15:06;98016.25;;;18.03;71.13
71996;BME280;59862;47.732;7.346;2023-07-20T05:17:34;98016.55;;;17.95;70.19
71996;BME280;59862;47.732;7.346;2023-07-20T05:20:01;98018.28;;;18.08;69.75
71996;BME280;59862;47.732;7.346;2023-07-20T05:22:30;98017.23;;;18.00;69.72
71996;BME280;59862;47.732;7.346;2023-07-20T05:24:58;98024.56;;;17.99;70.29
71996;BME280;59862;47.732;7.346;2023-07-20T05:27:26;98021.55;;;17.89;70.38
71996;BME280;59862;47.732;7.346;2023-07-20T05:29:53;98022.61;;;17.97;70.67
71996;BME280;59862;47.732;7.346;2023-07-20T05:32:20;98021.85;;;17.99;70.79
71996;BME280;59862;47.732;7.346;2023-07-20T05:34:51;98025.17;;;17.92;70.70
71996;BME280;59862;47.732;7.346;2023-07-20T05:37:19;98026.70;;;17.88;71.18
71996;BME280;59862;47.732;7.346;2023-07-20T05:39:47;98022.61;;;17.97;71.45
71996;BME280;59862;47.732;7.346;2023-07-20T05:42:14;98023.38;;;18.37;70.67
71996;BME280;59862;47.732;7.346;2023-07-20T05:44:41;98019.05;;;18.27;68.90
71996;BME280;59862;47.732;7.346;2023-07-20T05:47:09;98022.33;;;18.38;68.00
71996;BME280;59862;47.732;7.346;2023-07-20T05:49:36;98012.34;;;18.50;69.01
71996;BME280;59862;47.732;7.346;2023-07-20T05:52:04;98014.56;;;18.62;68.93
71996;BME280;59862;47.732;7.346;2023-07-20T05:54:32;98020.28;;;18.63;67.00
71996;BME280;59862;47.732;7.346;2023-07-20T05:56:59;98024.30;;;18.93;66.59
71996;BME280;59862;47.732;7.346;2023-07-20T05:59:28;98016.70;;;19.06;66.71
71996;BME280;59862;47.732;7.346;2023-07-20T06:01:58;98013.93;;;19.15;65.56
71996;BME280;59862;47.732;7.346;2023-07-20T06:04:25;98015.34;;;19.06;66.96
71996;BME280;59862;47.732;7.346;2023-07-20T06:06:53;98010.40;;;19.03;66.06
71996;BME280;59862;47.732;7.346;2023-07-20T06:09:20;98016.42;;;19.05;65.76
71996;BME280;59862;47.732;7.346;2023-07-20T06:11:48;98021.32;;;19.17;65.88
71996;BME280;59862;47.732;7.346;2023-07-20T06:14:15;98023.02;;;19.32;65.42
71996;BME280;59862;47.732;7.346;2023-07-20T06:16:45;98024.41;;;19.55;63.65
71996;BME280;59862;47.732;7.346;2023-07-20T06:19:12;98026.75;;;19.78;62.92
71996;BME280;59862;47.732;7.346;2023-07-20T06:21:40;98019.34;;;19.87;63.67
71996;BME280;59862;47.732;7.346;2023-07-20T06:24:07;98021.03;;;19.77;64.55
71996;BME280;59862;47.732;7.346;2023-07-20T06:26:34;98027.84;;;19.77;63.51
71996;BME280;59862;47.732;7.346;2023-07-20T06:29:04;98024.98;;;19.83;64.16
71996;BME280;59862;47.732;7.346;2023-07-20T06:31:33;98019.36;;;19.76;64.74
71996;BME280;59862;47.732;7.346;2023-07-20T06:34:02;98028.19;;;19.68;61.14
71996;BME280;59862;47.732;7.346;2023-07-20T06:36:29;98017.22;;;19.63;62.07
71996;BME280;59862;47.732;7.346;2023-07-20T06:38:57;98020.14;;;19.74;62.38
71996;BME280;59862;47.732;7.346;2023-07-20T06:41:24;98024.39;;;19.95;62.54
71996;BME280;59862;47.732;7.346;2023-07-20T06:43:51;98021.61;;;19.93;60.40
71996;BME280;59862;47.732;7.346;2023-07-20T06:46:20;98022.49;;;20.10;60.59
71996;BME280;59862;47.732;7.346;2023-07-20T06:48:48;98021.03;;;20.19;60.30
71996;BME280;59862;47.732;7.346;2023-07-20T06:51:15;98026.91;;;20.39;59.44
71996;BME280;59862;47.732;7.346;2023-07-20T06:53:44;98019.23;;;20.83;59.40
71996;BME280;59862;47.732;7.346;2023-07-20T06:56:12;98022.81;;;20.70;58.63
71996;BME280;59862;47.732;7.346;2023-07-20T06:58:39;98022.61;;;20.74;59.70
71996;BME280;59862;47.732;7.346;2023-07-20T07:01:08;98016.17;;;20.49;59.15
71996;BME280;59862;47.732;7.346;2023-07-20T07:03:36;98029.20;;;20.30;58.55
71996;BME280;59862;47.732;7.346;2023-07-20T07:06:03;98026.99;;;20.16;57.62
71996;BME280;59862;47.732;7.346;2023-07-20T07:08:31;98029.61;;;20.11;57.13
71996;BME280;59862;47.732;7.346;2023-07-20T07:10:58;98021.35;;;20.34;57.34
71996;BME280;59862;47.732;7.346;2023-07-20T07:13:25;98027.92;;;20.66;56.17
71996;BME280;59862;47.732;7.346;2023-07-20T07:15:53;98035.61;;;20.86;54.99
71996;BME280;59862;47.732;7.346;2023-07-20T07:18:20;98035.39;;;20.87;55.90
71996;BME280;59862;47.732;7.346;2023-07-20T07:20:52;98039.33;;;21.10;54.20
71996;BME280;59862;47.732;7.346;2023-07-20T07:23:21;98036.47;;;21.20;54.89
71996;BME280;59862;47.732;7.346;2023-07-20T07:25:49;98040.03;;;21.58;52.58
71996;BME280;59862;47.732;7.346;2023-07-20T07:28:16;98037.27;;;21.37;54.28
71996;BME280;59862;47.732;7.346;2023-07-20T07:30:44;98037.97;;;21.10;54.59
71996;BME280;59862;47.732;7.346;2023-07-20T07:33:11;98030.84;;;21.26;54.58
71996;BME280;59862;47.732;7.346;2023-07-20T07:35:39;98032.95;;;21.22;52.84
71996;BME280;59862;47.732;7.346;2023-07-20T07:38:07;98034.06;;;21.42;51.58
71996;BME280;59862;47.732;7.346;2023-07-20T07:40:34;98034.81;;;21.38;54.20
71996;BME280;59862;47.732;7.346;2023-07-20T07:43:01;98030.49;;;21.23;53.86
71996;BME280;59862;47.732;7.346;2023-07-20T07:45:30;98034.28;;;21.38;50.98
71996;BME280;59862;47.732;7.346;2023-07-20T07:47:57;98030.14;;;21.36;51.10
71996;BME280;59862;47.732;7.346;2023-07-20T07:50:25;98033.97;;;21.35;50.85
71996;BME280;59862;47.732;7.346;2023-07-20T07:52:53;98039.20;;;21.20;50.49
71996;BME280;59862;47.732;7.346;2023-07-20T07:55:21;98035.03;;;21.34;50.69
71996;BME280;59862;47.732;7.346;2023-07-20T07:57:48;98032.16;;;21.43;51.51
71996;BME280;59862;47.732;7.346;2023-07-20T08:00:17;98026.53;;;21.90;50.80
71996;BME280;59862;47.732;7.346;2023-07-20T08:02:46;98027.36;;;21.31;50.94
71996;BME280;59862;47.732;7.346;2023-07-20T08:05:15;98021.63;;;21.51;52.07
71996;BME280;59862;47.732;7.346;2023-07-20T08:07:42;98019.98;;;21.69;51.20
71996;BME280;59862;47.732;7.346;2023-07-20T08:10:10;98017.77;;;21.88;49.13
71996;BME280;59862;47.732;7.346;2023-07-20T08:12:37;98017.27;;;21.91;51.91
71996;BME280;59862;47.732;7.346;2023-07-20T08:15:06;98020.68;;;22.27;48.73
71996;BME280;59862;47.732;7.346;2023-07-20T08:17:33;98008.62;;;22.52;50.16
71996;BME280;59862;47.732;7.346;2023-07-20T08:20:01;98010.39;;;22.63;48.47
71996;BME280;59862;47.732;7.346;2023-07-20T08:22:28;98008.53;;;22.42;49.14
71996;BME280;59862;47.732;7.346;2023-07-20T08:24:56;98010.20;;;22.43;49.94
71996;BME280;59862;47.732;7.346;2023-07-20T08:27:23;98010.18;;;22.70;49.32
71996;BME280;59862;47.732;7.346;2023-07-20T08:29:51;98017.73;;;22.90;48.14
71996;BME280;59862;47.732;7.346;2023-07-20T08:32:18;98014.60;;;23.08;47.27
71996;BME280;59862;47.732;7.346;2023-07-20T08:34:46;98018.92;;;23.35;46.76
71996;BME280;59862;47.732;7.346;2023-07-20T08:37:14;98017.70;;;23.58;46.57
71996;BME280;59862;47.732;7.346;2023-07-20T08:39:42;98015.16;;;23.47;46.96
71996;BME280;59862;47.732;7.346;2023-07-20T08:42:10;98011.37;;;23.55;46.52
71996;BME280;59862;47.732;7.346;2023-07-20T08:44:38;98012.87;;;23.78;46.28
71996;BME280;59862;47.732;7.346;2023-07-20T08:47:07;98016.69;;;23.77;45.05
71996;BME280;59862;47.732;7.346;2023-07-20T08:49:36;98010.50;;;23.08;47.09
71996;BME280;59862;47.732;7.346;2023-07-20T08:52:05;98010.64;;;23.28;47.00
71996;BME280;59862;47.732;7.346;2023-07-20T08:54:34;98018.87;;;23.75;44.51
71996;BME280;59862;47.732;7.346;2023-07-20T08:57:03;98009.52;;;23.68;45.10
71996;BME280;59862;47.732;7.346;2023-07-20T08:59:32;98017.19;;;23.66;45.16
71996;BME280;59862;47.732;7.346;2023-07-20T09:02:01;98009.55;;;23.78;45.11
71996;BME280;59862;47.732;7.346;2023-07-20T09:04:29;98009.33;;;23.87;44.83
71996;BME280;59862;47.732;7.346;2023-07-20T09:06:58;98004.28;;;24.21;43.75
71996;BME280;59862;47.732;7.346;2023-07-20T09:09:25;98003.23;;;24.45;42.43
71996;BME280;59862;47.732;7.346;2023-07-20T09:11:52;97997.45;;;24.46;43.36
71996;BME280;59862;47.732;7.346;2023-07-20T09:14:22;97999.17;;;24.75;43.48
71996;BME280;59862;47.732;7.346;2023-07-20T09:16:52;98004.11;;;24.88;42.33
71996;BME280;59862;47.732;7.346;2023-07-20T09:19:21;98003.81;;;25.42;42.08
71996;BME280;59862;47.732;7.346;2023-07-20T09:21:50;98004.03;;;25.53;42.50
71996;BME280;59862;47.732;7.346;2023-07-20T09:24:19;98004.11;;;25.03;42.22
71996;BME280;59862;47.732;7.346;2023-07-20T09:26:48;97992.81;;;24.62;44.07
71996;BME280;59862;47.732;7.346;2023-07-20T09:29:20;97991.75;;;25.01;41.89
71996;BME280;59862;47.732;7.346;2023-07-20T09:32:01;97992.02;;;25.12;41.07
71996;BME280;59862;47.732;7.346;2023-07-20T09:34:30;97989.84;;;26.03;41.51
71996;BME280;59862;47.732;7.346;2023-07-20T09:37:00;97987.03;;;26.20;39.77
71996;BME280;59862;47.732;7.346;2023-07-20T09:39:28;97992.18;;;26.29;38.81
71996;BME280;59862;47.732;7.346;2023-07-20T09:42:00;97985.72;;;25.01;41.10
71996;BME280;59862;47.732;7.346;2023-07-20T09:44:28;97979.91;;;24.52;43.28
71996;BME280;59862;47.732;7.346;2023-07-20T09:46:56;97980.69;;;24.23;44.01
71996;BME280;59862;47.732;7.346;2023-07-20T09:49:23;97976.88;;;24.44;43.38
71996;BME280;59862;47.732;7.346;2023-07-20T09:51:53;97974.75;;;24.86;43.20
71996;BME280;59862;47.732;7.346;2023-07-20T09:54:22;97977.95;;;24.23;43.83
71996;BME280;59862;47.732;7.346;2023-07-20T09:56:51;97965.65;;;24.68;44.32
71996;BME280;59862;47.732;7.346;2023-07-20T09:59:19;97974.42;;;25.13;42.17
71996;BME280;59862;47.732;7.346;2023-07-20T10:01:47;97968.86;;;25.40;40.24
71996;BME280;59862;47.732;7.346;2023-07-20T10:04:15;97965.77;;;25.75;41.70
71996;BME280;59862;47.732;7.346;2023-07-20T10:06:46;97963.20;;;25.96;40.32
71996;BME280;59862;47.732;7.346;2023-07-20T10:09:15;97950.60;;;26.33;39.25
71996;BME280;59862;47.732;7.346;2023-07-20T10:11:47;97952.98;;;26.86;38.78
71996;BME280;59862;47.732;7.346;2023-07-20T10:14:16;97949.27;;;27.77;36.53
71996;BME280;59862;47.732;7.346;2023-07-20T10:16:54;97955.70;;;27.46;36.56
71996;BME280;59862;47.732;7.346;2023-07-20T10:19:23;97952.05;;;27.98;34.68
71996;BME280;59862;47.732;7.346;2023-07-20T10:22:10;97948.77;;;27.23;36.96
71996;BME280;59862;47.732;7.346;2023-07-20T10:24:38;97947.92;;;26.62;39.80
71996;BME280;59862;47.732;7.346;2023-07-20T10:27:06;97943.17;;;24.81;42.13
71996;BME280;59862;47.732;7.346;2023-07-20T10:29:34;97944.51;;;24.61;40.69
71996;BME280;59862;47.732;7.346;2023-07-20T10:32:02;97941.06;;;26.21;39.17
71996;BME280;59862;47.732;7.346;2023-07-20T10:34:29;97937.94;;;26.76;36.52
71996;BME280;59862;47.732;7.346;2023-07-20T10:36:59;97934.30;;;27.83;35.78
71996;BME280;59862;47.732;7.346;2023-07-20T10:39:28;97920.63;;;27.94;35.66
71996;BME280;59862;47.732;7.346;2023-07-20T10:42:01;97931.09;;;28.53;34.38
71996;BME280;59862;47.732;7.346;2023-07-20T10:44:30;97935.08;;;27.44;35.42
71996;BME280;59862;47.732;7.346;2023-07-20T10:47:09;97925.83;;;27.77;35.59
71996;BME280;59862;47.732;7.346;2023-07-20T10:52:23;97924.23;;;28.34;33.02
71996;BME280;59862;47.732;7.346;2023-07-20T10:54:51;97924.55;;;29.00;32.30
71996;BME280;59862;47.732;7.346;2023-07-20T10:57:23;97919.18;;;29.06;32.10
71996;BME280;59862;47.732;7.346;2023-07-20T10:59:51;97906.36;;;28.29;34.57
71996;BME280;59862;47.732;7.346;2023-07-20T11:02:19;97909.56;;;27.99;34.16
71996;BME280;59862;47.732;7.346;2023-07-20T11:04:47;97905.94;;;29.49;34.11
71996;BME280;59862;47.732;7.346;2023-07-20T11:07:38;97911.56;;;29.57;33.32
71996;BME280;59862;47.732;7.346;2023-07-20T11:10:15;97909.83;;;28.88;32.96
71996;BME280;59862;47.732;7.346;2023-07-20T11:18:17;97900.71;;;28.88;32.28
71996;BME280;59862;47.732;7.346;2023-07-20T11:20:49;97890.18;;;30.37;32.93
71996;BME280;59862;47.732;7.346;2023-07-20T11:23:14;97898.66;;;31.49;28.88
71996;BME280;59862;47.732;7.346;2023-07-20T11:25:44;97898.45;;;30.15;31.01
71996;BME280;59862;47.732;7.346;2023-07-20T11:28:12;97891.94;;;29.56;32.22
71996;BME280;59862;47.732;7.346;2023-07-20T11:30:40;97881.70;;;30.44;31.23
71996;BME280;59862;47.732;7.346;2023-07-20T11:33:10;97885.97;;;30.04;31.25
71996;BME280;59862;47.732;7.346;2023-07-20T11:35:45;97877.72;;;30.37;31.30
71996;BME280;59862;47.732;7.346;2023-07-20T11:38:14;97880.26;;;30.47;30.67
71996;BME280;59862;47.732;7.346;2023-07-20T11:40:45;97876.41;;;31.88;29.19
71996;BME280;59862;47.732;7.346;2023-07-20T11:43:13;97873.31;;;31.22;30.08
71996;BME280;59862;47.732;7.346;2023-07-20T11:45:42;97871.64;;;31.80;28.96
71996;BME280;59862;47.732;7.346;2023-07-20T11:48:14;97874.55;;;30.19;30.77
71996;BME280;59862;47.732;7.346;2023-07-20T11:50:43;97869.20;;;28.57;32.94
71996;BME280;59862;47.732;7.346;2023-07-20T11:53:11;97873.43;;;30.06;30.54
71996;BME280;59862;47.732;7.346;2023-07-20T11:55:40;97869.05;;;31.35;30.43
71996;BME280;59862;47.732;7.346;2023-07-20T11:58:09;97865.92;;;31.76;28.53
71996;BME280;59862;47.732;7.346;2023-07-20T12:00:38;97864.27;;;31.67;28.45
71996;BME280;59862;47.732;7.346;2023-07-20T12:03:07;97854.17;;;32.25;28.76
71996;BME280;59862;47.732;7.346;2023-07-20T12:05:36;97862.02;;;33.20;26.82
71996;BME280;59862;47.732;7.346;2023-07-20T12:08:04;97855.98;;;33.18;28.94
71996;BME280;59862;47.732;7.346;2023-07-20T12:10:31;97845.94;;;31.29;28.72
71996;BME280;59862;47.732;7.346;2023-07-20T12:13:03;97846.28;;;30.86;28.37
71996;BME280;59862;47.732;7.346;2023-07-20T12:15:31;97836.52;;;31.67;29.72
71996;BME280;59862;47.732;7.346;2023-07-20T12:17:59;97839.64;;;31.82;28.56
71996;BME280;59862;47.732;7.346;2023-07-20T12:20:33;97833.41;;;32.31;27.69
71996;BME280;59862;47.732;7.346;2023-07-20T12:23:12;97833.92;;;31.22;28.44
71996;BME280;59862;47.732;7.346;2023-07-20T12:25:43;97836.55;;;30.88;30.13
71996;BME280;59862;47.732;7.346;2023-07-20T12:28:12;97834.37;;;31.47;28.24
71996;BME280;59862;47.732;7.346;2023-07-20T12:30:41;97833.89;;;32.58;26.16
71996;BME280;59862;47.732;7.346;2023-07-20T12:33:10;97830.70;;;32.62;26.99
71996;BME280;59862;47.732;7.346;2023-07-20T12:35:43;97833.64;;;34.02;24.80
71996;BME280;59862;47.732;7.346;2023-07-20T12:38:11;97829.90;;;34.78;24.40
71996;BME280;59862;47.732;7.346;2023-07-20T12:40:39;97830.59;;;35.20;24.47
71996;BME280;59862;47.732;7.346;2023-07-20T12:43:07;97827.03;;;33.92;26.19
71996;BME280;59862;47.732;7.346;2023-07-20T12:45:35;97816.16;;;33.49;26.57
71996;BME280;59862;47.732;7.346;2023-07-20T12:48:03;97819.34;;;33.69;26.85
71996;BME280;59862;47.732;7.346;2023-07-20T12:50:30;97809.64;;;34.30;23.72
71996;BME280;59862;47.732;7.346;2023-07-20T12:52:58;97807.92;;;33.76;25.08
71996;BME280;59862;47.732;7.346;2023-07-20T12:55:25;97810.59;;;33.35;24.75
71996;BME280;59862;47.732;7.346;2023-07-20T12:57:53;97803.64;;;33.64;25.80
71996;BME280;59862;47.732;7.346;2023-07-20T13:00:21;97796.52;;;34.04;24.46
71996;BME280;59862;47.732;7.346;2023-07-20T13:02:51;97792.99;;;33.37;25.68
71996;BME280;59862;47.732;7.346;2023-07-20T13:05:19;97793.80;;;34.88;24.83
71996;BME280;59862;47.732;7.346;2023-07-20T13:07:46;97791.52;;;34.63;24.35
71996;BME280;59862;47.732;7.346;2023-07-20T13:10:14;97795.38;;;35.40;22.61
71996;BME280;59862;47.732;7.346;2023-07-20T13:12:41;97789.65;;;35.00;22.46
71996;BME280;59862;47.732;7.346;2023-07-20T13:15:11;97796.20;;;34.39;22.72
71996;BME280;59862;47.732;7.346;2023-07-20T13:17:39;97787.95;;;34.63;22.83
71996;BME280;59862;47.732;7.346;2023-07-20T13:20:09;97782.96;;;34.09;23.12
71996;BME280;59862;47.732;7.346;2023-07-20T13:22:38;97791.44;;;33.56;23.46
71996;BME280;59862;47.732;7.346;2023-07-20T13:25:07;97776.01;;;34.00;24.61
71996;BME280;59862;47.732;7.346;2023-07-20T13:27:36;97780.23;;;33.07;24.29